Time;durP1;ratioP1;P1;durP2;ratioP2;P2;SDS_P1;SDS_P2;PMS_P1;PMS_P2;Temp;Humidity;BMP_temperature;BMP_pressure;BME280_temperature;BME280_humidity;BME280_pressure;Samples;Min_cycle;Max_cycle;Signal;HPM_P1;HPM_P2
2022/02/02 00:03:59;;;;;;;;;;;15.90;36.20;;;;;;8331261;28;20330;-54
2022/02/02 00:08:05;;;;;;;;;;;15.80;36.20;;;;;;8332808;28;19921;-54
2022/02/02 00:20:24;;;;;;;;;;;15.80;36.70;;;;;;8332416;28;19921;-53
2022/02/02 00:28:32;;;;;;;;;;;15.80;36.20;;;;;;8331500;28;19913;-53
2022/02/02 00:36:50;;;;;;;;;;;15.80;36.20;;;;;;8331869;28;19921;-52
2022/02/02 00:40:50;;;;;;;;;;;15.90;36.30;;;;;;8331000;28;19921;-51
2022/02/02 00:44:54;;;;;;;;;;;15.90;36.20;;;;;;8331641;28;19971;-53
2022/02/02 00:49:00;;;;;;;;;;;15.90;36.20;;;;;;8331532;28;19928;-50
2022/02/02 00:53:01;;;;;;;;;;;15.90;36.20;;;;;;8330825;28;19922;-53
2022/02/02 00:57:01;;;;;;;;;;;15.90;36.20;;;;;;8331077;28;20420;-52
2022/02/02 01:01:01;;;;;;;;;;;15.90;36.20;;;;;;8330381;28;19917;-51
2022/02/02 01:05:02;;;;;;;;;;;16.00;36.20;;;;;;8331086;28;19921;-54
2022/02/02 01:09:20;;;;;;;;;;;16.00;36.20;;;;;;8330752;28;20336;-51
2022/02/02 01:13:48;;;;;;;;;;;16.00;36.20;;;;;;8330081;28;19921;-52
2022/02/02 01:22:16;;;;;;;;;;;16.00;36.30;;;;;;8333881;28;19999;-52
2022/02/02 01:30:36;;;;;;;;;;;16.00;36.30;;;;;;8333305;28;19983;-52
2022/02/02 01:34:36;;;;;;;;;;;16.00;36.30;;;;;;8329908;28;19917;-55
2022/02/02 01:38:37;;;;;;;;;;;16.00;36.30;;;;;;8330004;28;19921;-54
2022/02/02 01:42:46;;;;;;;;;;;16.00;36.30;;;;;;8329961;28;19921;-53
2022/02/02 01:46:49;;;;;;;;;;;16.00;36.30;;;;;;8312070;28;20540;-55
2022/02/02 01:51:01;;;;;;;;;;;16.00;36.40;;;;;;8329865;28;19925;-55
2022/02/02 01:55:05;;;;;;;;;;;16.00;36.40;;;;;;8331907;28;19917;-51
2022/02/02 02:03:06;;;;;;;;;;;15.90;36.40;;;;;;8330152;28;19928;-55
2022/02/02 02:07:07;;;;;;;;;;;15.90;36.40;;;;;;8329283;28;19917;-53
2022/02/02 02:11:13;;;;;;;;;;;15.90;36.50;;;;;;8302541;28;19926;-51
2022/02/02 02:15:16;;;;;;;;;;;15.90;36.40;;;;;;8298663;28;19913;-50
2022/02/02 02:19:20;;;;;;;;;;;15.90;36.50;;;;;;8296768;28;19921;-54
2022/02/02 02:23:20;;;;;;;;;;;15.90;36.60;;;;;;8297240;28;20355;-51
2022/02/02 02:27:23;;;;;;;;;;;15.90;36.60;;;;;;8301877;28;19963;-53
2022/02/02 02:31:40;;;;;;;;;;;15.90;36.60;;;;;;8302280;28;19933;-54
2022/02/02 02:36:19;;;;;;;;;;;15.90;36.60;;;;;;8302696;28;19918;-54
2022/02/02 02:40:27;;;;;;;;;;;15.90;36.60;;;;;;8302072;28;19964;-53
2022/02/02 02:57:29;;;;;;;;;;;15.90;36.80;;;;;;8339070;28;20113;-53
2022/02/02 03:01:50;;;;;;;;;;;15.90;36.80;;;;;;8334859;28;19921;-53
2022/02/02 03:31:58;;;;;;;;;;;16.00;36.80;;;;;;8333266;28;20456;-52
2022/02/02 03:49:27;;;;;;;;;;;16.00;36.90;;;;;;8333437;28;19921;-52
2022/02/02 03:49:37;;;;;;;;;;;15.90;36.90;;;;;;8332867;28;19951;-52
2022/02/02 04:05:48;;;;;;;;;;;15.90;36.90;;;;;;8334216;28;19921;-54
2022/02/02 04:09:49;;;;;;;;;;;15.90;37.00;;;;;;8332767;28;20051;-54
2022/02/02 05:18:10;;;;;;;;;;;15.90;37.30;;;;;;8330996;28;19982;-52
2022/02/02 05:51:56;;;;;;;;;;;15.90;37.30;;;;;;8330083;28;20297;-55
2022/02/02 05:56:00;;;;;;;;;;;15.90;37.30;;;;;;8329698;28;19988;-53
2022/02/02 06:00:00;;;;;;;;;;;15.90;37.40;;;;;;8331439;28;20004;-54
2022/02/02 06:04:01;;;;;;;;;;;15.90;37.40;;;;;;8335837;28;19921;-51
2022/02/02 06:08:02;;;;;;;;;;;16.00;37.40;;;;;;8336426;28;19925;-52
2022/02/02 06:12:04;;;;;;;;;;;15.90;37.40;;;;;;8336418;28;19931;-54
2022/02/02 06:16:05;;;;;;;;;;;16.00;37.40;;;;;;8335958;28;19924;-51
2022/02/02 06:20:06;;;;;;;;;;;15.90;37.40;;;;;;8336206;28;19925;-53
2022/02/02 06:24:07;;;;;;;;;;;16.00;37.50;;;;;;8335728;28;19921;-50
2022/02/02 06:28:09;;;;;;;;;;;15.90;37.40;;;;;;8335219;28;19917;-54
2022/02/02 06:32:12;;;;;;;;;;;15.90;37.50;;;;;;8335681;28;19921;-54
2022/02/02 06:36:12;;;;;;;;;;;15.90;37.50;;;;;;8335741;28;19920;-51
2022/02/02 06:40:14;;;;;;;;;;;16.00;37.50;;;;;;8335049;28;20379;-51
2022/02/02 06:44:14;;;;;;;;;;;16.00;37.50;;;;;;8333922;28;19917;-51
2022/02/02 06:48:15;;;;;;;;;;;15.90;37.40;;;;;;8335101;28;20012;-51
2022/02/02 06:52:23;;;;;;;;;;;16.00;37.50;;;;;;8332491;28;20247;-52
2022/02/02 06:56:40;;;;;;;;;;;16.00;37.50;;;;;;8335616;28;19997;-53
2022/02/02 07:01:07;;;;;;;;;;;16.00;37.60;;;;;;8333048;28;19932;-51
2022/02/02 07:09:34;;;;;;;;;;;16.00;37.60;;;;;;8332736;28;19929;-51
2022/02/02 07:18:18;;;;;;;;;;;15.90;37.60;;;;;;8333172;28;20418;-50
2022/02/02 07:31:05;;;;;;;;;;;16.00;37.70;;;;;;8334924;28;19925;-53
2022/02/02 07:35:12;;;;;;;;;;;16.00;37.60;;;;;;8332271;28;19970;-54
2022/02/02 07:39:13;;;;;;;;;;;16.00;37.70;;;;;;8336684;28;19917;-53
2022/02/02 07:43:42;;;;;;;;;;;16.00;37.60;;;;;;8331243;28;19924;-52
2022/02/02 07:47:44;;;;;;;;;;;16.00;37.60;;;;;;8330263;28;19929;-50
2022/02/02 07:51:46;;;;;;;;;;;16.00;37.70;;;;;;8331748;28;19925;-51
2022/02/02 07:55:48;;;;;;;;;;;16.00;37.60;;;;;;8331047;28;20011;-51
2022/02/02 07:59:54;;;;;;;;;;;16.00;37.70;;;;;;8331532;28;20000;-49
2022/02/02 08:03:57;;;;;;;;;;;16.00;37.60;;;;;;8334067;28;20445;-50
2022/02/02 08:12:17;;;;;;;;;;;16.00;37.60;;;;;;8335420;28;19925;-54
2022/02/02 08:16:18;;;;;;;;;;;16.00;37.70;;;;;;8330470;28;19928;-50
2022/02/02 08:20:18;;;;;;;;;;;16.00;37.60;;;;;;8330466;28;20370;-50
2022/02/02 08:24:19;;;;;;;;;;;16.00;37.60;;;;;;8329837;28;19923;-50
2022/02/02 08:28:20;;;;;;;;;;;16.00;37.60;;;;;;8329813;28;19956;-53
2022/02/02 08:32:20;;;;;;;;;;;16.00;37.60;;;;;;8330361;28;19972;-50
2022/02/02 08:36:21;;;;;;;;;;;16.10;37.70;;;;;;8330072;28;20346;-49
2022/02/02 08:40:36;;;;;;;;;;;16.00;37.60;;;;;;8329339;28;20010;-53
2022/02/02 08:45:02;;;;;;;;;;;16.00;37.70;;;;;;8329854;28;19921;-52
2022/02/02 08:49:05;;;;;;;;;;;16.10;37.70;;;;;;8329047;28;20422;-51
2022/02/02 08:53:16;;;;;;;;;;;16.00;37.60;;;;;;8329574;28;20049;-49
2022/02/02 08:57:40;;;;;;;;;;;16.10;37.70;;;;;;8334223;28;19917;-51
2022/02/02 09:01:41;;;;;;;;;;;16.00;37.60;;;;;;8329061;28;20289;-50
2022/02/02 09:05:42;;;;;;;;;;;16.00;37.60;;;;;;8329344;28;19971;-51
2022/02/02 09:09:56;;;;;;;;;;;16.10;37.70;;;;;;8328953;28;19948;-49
2022/02/02 09:31:28;;;;;;;;;;;16.10;37.70;;;;;;8329633;28;20366;-51
2022/02/02 09:35:29;;;;;;;;;;;16.10;37.70;;;;;;8328999;28;19948;-53
2022/02/02 09:39:37;;;;;;;;;;;16.10;37.70;;;;;;8328601;28;19913;-52
2022/02/02 09:43:42;;;;;;;;;;;16.10;37.70;;;;;;8328414;28;19917;-54
2022/02/02 09:47:50;;;;;;;;;;;16.10;38.20;;;;;;8328454;28;20334;-55
2022/02/02 09:51:58;;;;;;;;;;;16.10;37.70;;;;;;8331195;28;19929;-53
2022/02/02 10:04:45;;;;;;;;;;;16.20;37.70;;;;;;8328491;28;20002;-50
2022/02/02 10:17:00;;;;;;;;;;;16.20;37.70;;;;;;8327670;28;19917;-50
2022/02/02 10:21:01;;;;;;;;;;;16.20;37.70;;;;;;8328133;28;20301;-52
2022/02/02 10:25:04;;;;;;;;;;;16.20;37.70;;;;;;8327229;28;19913;-51
2022/02/02 10:29:09;;;;;;;;;;;16.20;37.60;;;;;;8328726;28;19921;-52
2022/02/02 10:33:13;;;;;;;;;;;16.20;37.70;;;;;;8329498;28;19917;-53
2022/02/02 10:37:18;;;;;;;;;;;16.30;37.70;;;;;;8328904;28;19917;-52
2022/02/02 10:41:29;;;;;;;;;;;16.20;37.70;;;;;;8329306;28;19967;-52
2022/02/02 10:45:31;;;;;;;;;;;16.20;37.70;;;;;;8331676;28;19921;-49
2022/02/02 10:49:57;;;;;;;;;;;16.30;37.70;;;;;;8334418;28;20003;-51
2022/02/02 11:06:44;;;;;;;;;;;16.30;37.80;;;;;;8334708;28;19927;-54
2022/02/02 11:10:47;;;;;;;;;;;16.30;37.80;;;;;;8333281;28;19925;-52
2022/02/02 11:14:59;;;;;;;;;;;16.30;37.80;;;;;;8334299;28;19917;-51
2022/02/02 11:19:00;;;;;;;;;;;16.30;37.80;;;;;;8333724;28;19943;-52
2022/02/02 11:23:01;;;;;;;;;;;16.40;37.80;;;;;;8334098;28;19917;-55
2022/02/02 11:27:01;;;;;;;;;;;16.40;37.80;;;;;;8333918;28;19917;-54
2022/02/02 11:31:06;;;;;;;;;;;16.40;37.90;;;;;;8333189;28;20020;-53
2022/02/02 11:35:27;;;;;;;;;;;16.40;37.90;;;;;;8333774;28;20381;-55
2022/02/02 11:39:45;;;;;;;;;;;16.40;37.90;;;;;;8333786;28;20453;-51
2022/02/02 11:43:45;;;;;;;;;;;16.40;37.90;;;;;;8333032;28;20012;-54
2022/02/02 11:47:48;;;;;;;;;;;16.40;37.90;;;;;;8333226;28;19917;-54
2022/02/02 11:51:58;;;;;;;;;;;16.40;37.80;;;;;;8315465;28;19925;-51
2022/02/02 11:56:05;;;;;;;;;;;16.40;37.90;;;;;;8332601;28;19917;-52
2022/02/02 12:00:13;;;;;;;;;;;16.40;37.90;;;;;;8331926;28;20266;-54
2022/02/02 12:04:28;;;;;;;;;;;16.40;37.90;;;;;;8314454;28;20345;-52
2022/02/02 12:08:47;;;;;;;;;;;16.40;37.90;;;;;;8339621;28;19960;-55
2022/02/02 12:48:17;;;;;;;;;;;16.50;38.00;;;;;;8331722;28;19998;-53
2022/02/02 12:56:26;;;;;;;;;;;16.60;38.10;;;;;;8331355;28;19917;-52
2022/02/02 13:04:29;;;;;;;;;;;16.50;38.00;;;;;;8330992;28;19921;-50
2022/02/02 13:08:30;;;;;;;;;;;16.50;38.00;;;;;;8330645;28;20125;-49
2022/02/02 13:12:37;;;;;;;;;;;16.50;38.00;;;;;;8330741;28;19952;-50
2022/02/02 13:16:37;;;;;;;;;;;16.60;38.10;;;;;;8312459;28;19917;-54
2022/02/02 13:24:45;;;;;;;;;;;16.60;38.10;;;;;;8330114;28;19917;-53
2022/02/02 13:28:58;;;;;;;;;;;16.60;38.10;;;;;;8330023;28;19948;-52
2022/02/02 13:33:08;;;;;;;;;;;16.60;38.10;;;;;;8335738;28;19956;-53
2022/02/02 13:54:45;;;;;;;;;;;16.60;38.20;;;;;;8334022;28;20016;-53
2022/02/02 14:11:45;;;;;;;;;;;16.60;38.20;;;;;;8331001;28;19929;-53
2022/02/02 14:33:00;;;;;;;;;;;16.70;38.30;;;;;;8335660;28;19982;-53
2022/02/02 14:37:02;;;;;;;;;;;16.70;38.30;;;;;;8334991;28;20259;-53
2022/02/02 14:41:12;;;;;;;;;;;16.70;38.30;;;;;;8335247;28;20354;-50
2022/02/02 14:45:16;;;;;;;;;;;16.70;38.30;;;;;;8339107;28;19913;-53
2022/02/02 14:49:27;;;;;;;;;;;16.70;38.30;;;;;;8333947;28;19968;-50
2022/02/02 15:05:28;;;;;;;;;;;16.70;38.30;;;;;;8334601;28;19940;-51
2022/02/02 15:27:51;;;;;;;;;;;16.70;38.40;;;;;;8334241;28;20404;-50
2022/02/02 15:31:51;;;;;;;;;;;16.70;38.40;;;;;;8333222;28;19940;-53
2022/02/02 15:36:04;;;;;;;;;;;16.70;38.40;;;;;;8333712;28;19917;-53
2022/02/02 15:40:15;;;;;;;;;;;16.70;38.40;;;;;;8336192;28;19913;-53
2022/02/02 16:05:49;;;;;;;;;;;16.70;38.50;;;;;;8333142;28;19952;-50
2022/02/02 16:13:55;;;;;;;;;;;16.70;38.60;;;;;;8332425;28;20008;-52
2022/02/02 16:39:49;;;;;;;;;;;17.10;38.70;;;;;;8324372;28;19924;-54
2022/02/02 16:43:50;;;;;;;;;;;17.10;38.60;;;;;;8300261;28;19963;-54
2022/02/02 16:47:50;;;;;;;;;;;17.20;38.70;;;;;;8303908;28;19925;-55
2022/02/02 16:51:51;;;;;;;;;;;17.30;38.70;;;;;;8331334;28;19925;-50
2022/02/02 17:29:58;;;;;;;;;;;17.60;38.60;;;;;;8312926;28;20390;-54
2022/02/02 17:34:07;;;;;;;;;;;17.60;38.60;;;;;;8356129;28;19952;-55
2022/02/02 18:20:26;;;;;;;;;;;18.00;38.60;;;;;;8303402;28;19917;-52
2022/02/02 18:24:36;;;;;;;;;;;18.00;38.60;;;;;;8303097;28;19917;-52
2022/02/02 18:28:51;;;;;;;;;;;18.10;38.60;;;;;;8303461;28;19933;-54
2022/02/02 18:46:08;;;;;;;;;;;18.20;38.60;;;;;;8338736;28;20353;-54
2022/02/02 18:50:54;;;;;;;;;;;18.20;38.50;;;;;;8305534;28;19932;-54
2022/02/02 19:07:15;;;;;;;;;;;18.30;38.50;;;;;;8304485;28;20295;-50
2022/02/02 19:31:03;;;;;;;;;;;18.40;38.50;;;;;;8272788;28;20444;-51
2022/02/02 20:11:38;;;;;;;;;;;18.60;39.10;;;;;;8327599;28;19925;-46
2022/02/02 20:15:40;;;;;;;;;;;18.50;38.90;;;;;;8313990;28;19921;-52
2022/02/02 20:19:44;;;;;;;;;;;18.10;40.50;;;;;;8318325;28;19921;-53
2022/02/02 20:23:48;;;;;;;;;;;18.20;39.70;;;;;;8322236;28;19921;-55
2022/02/02 20:27:53;;;;;;;;;;;18.10;40.80;;;;;;8326991;28;19921;-51
2022/02/02 20:31:53;;;;;;;;;;;18.10;40.70;;;;;;8304585;28;19983;-55
2022/02/02 20:35:54;;;;;;;;;;;17.90;40.60;;;;;;8311051;28;19922;-55
2022/02/02 20:40:02;;;;;;;;;;;17.90;41.80;;;;;;8332745;28;19928;-49
2022/02/02 20:44:06;;;;;;;;;;;18.00;40.70;;;;;;8321250;28;20288;-50
2022/02/02 21:05:23;;;;;;;;;;;18.30;40.00;;;;;;8331797;28;20279;-52
2022/02/02 21:13:43;;;;;;;;;;;18.50;39.30;;;;;;8331350;28;20052;-54
2022/02/02 21:17:43;;;;;;;;;;;18.60;39.20;;;;;;8331097;28;20273;-52
2022/02/02 21:21:52;;;;;;;;;;;18.70;39.00;;;;;;8331154;28;19917;-53
2022/02/02 21:30:07;;;;;;;;;;;18.70;38.90;;;;;;8334946;28;19971;-56
2022/02/02 21:34:08;;;;;;;;;;;18.70;38.90;;;;;;8330045;28;19921;-56
2022/02/02 21:38:20;;;;;;;;;;;18.70;38.80;;;;;;8330449;28;19941;-55
2022/02/02 21:42:21;;;;;;;;;;;18.70;38.80;;;;;;8335005;28;19918;-54
2022/02/02 21:46:22;;;;;;;;;;;18.70;38.80;;;;;;8329832;28;19917;-55
2022/02/02 21:50:23;;;;;;;;;;;18.70;38.80;;;;;;8330231;28;19929;-54
2022/02/02 21:54:23;;;;;;;;;;;18.70;38.80;;;;;;8330105;28;19919;-52
2022/02/02 21:58:24;;;;;;;;;;;18.60;38.70;;;;;;8329577;28;19917;-55
2022/02/02 22:02:24;;;;;;;;;;;18.60;38.70;;;;;;8330229;28;19913;-53
2022/02/02 22:06:25;;;;;;;;;;;18.60;38.80;;;;;;8330036;28;19921;-54
2022/02/02 22:10:25;;;;;;;;;;;18.60;38.80;;;;;;8329292;28;19928;-56
2022/02/02 22:14:26;;;;;;;;;;;18.60;38.80;;;;;;8330039;28;20435;-55
2022/02/02 22:18:27;;;;;;;;;;;18.60;38.80;;;;;;8329810;28;19921;-53
2022/02/02 22:22:27;;;;;;;;;;;18.60;38.70;;;;;;8329545;28;19920;-54
2022/02/02 22:26:28;;;;;;;;;;;18.60;38.80;;;;;;8329505;28;19917;-53
2022/02/02 22:30:28;;;;;;;;;;;18.50;38.70;;;;;;8329588;28;19921;-54
2022/02/02 22:34:29;;;;;;;;;;;18.60;38.80;;;;;;8329023;28;19924;-53
2022/02/02 22:38:30;;;;;;;;;;;18.50;38.70;;;;;;8329574;28;20004;-51
2022/02/02 22:42:31;;;;;;;;;;;18.50;38.70;;;;;;8331575;28;20011;-54
2022/02/02 22:46:34;;;;;;;;;;;18.50;38.70;;;;;;8334933;28;19921;-54
2022/02/02 22:50:34;;;;;;;;;;;18.50;38.70;;;;;;8335137;28;20008;-52
2022/02/02 22:54:37;;;;;;;;;;;18.40;38.60;;;;;;8335208;28;19913;-53
2022/02/02 22:58:45;;;;;;;;;;;18.40;38.60;;;;;;8334604;28;20354;-53
2022/02/02 23:06:46;;;;;;;;;;;18.40;38.60;;;;;;8335145;28;19990;-51
2022/02/02 23:10:46;;;;;;;;;;;18.40;38.60;;;;;;8334060;28;20397;-53
2022/02/02 23:14:47;;;;;;;;;;;18.40;38.60;;;;;;8334852;28;20296;-54
2022/02/02 23:18:48;;;;;;;;;;;18.40;38.60;;;;;;8334574;28;19929;-51
2022/02/02 23:22:49;;;;;;;;;;;18.40;38.60;;;;;;8333944;28;19967;-55
2022/02/02 23:26:49;;;;;;;;;;;18.40;38.60;;;;;;8334301;28;19917;-51
2022/02/02 23:30:50;;;;;;;;;;;18.40;38.60;;;;;;8334143;28;20016;-54
2022/02/02 23:34:51;;;;;;;;;;;18.40;38.50;;;;;;8333346;28;20012;-53
2022/02/02 23:38:51;;;;;;;;;;;18.30;38.50;;;;;;8333787;28;19917;-54
2022/02/02 23:42:52;;;;;;;;;;;18.30;38.50;;;;;;8333945;28;19917;-52
2022/02/02 23:46:53;;;;;;;;;;;18.30;38.50;;;;;;8333127;28;19924;-52
2022/02/02 23:50:57;;;;;;;;;;;18.30;38.50;;;;;;8333524;28;20378;-54
2022/02/02 23:55:00;;;;;;;;;;;18.30;38.40;;;;;;8332690;28;20012;-56
2022/02/02 23:59:07;;;;;;;;;;;18.30;38.40;;;;;;8333187;28;19979;-56
